Time;durP1;ratioP1;P1;durP2;ratioP2;P2;SDS_P1;SDS_P2;PMS_P1;PMS_P2;Temp;Humidity;BMP_temperature;BMP_pressure;BME280_temperature;BME280_humidity;BME280_pressure;Samples;Min_cycle;Max_cycle;Signal;HPM_P1;HPM_P2
2022/03/31 00:01:43;;;;;;;;;;;;;;;1.53;100.00;100348.19;5113524;28;20257;-75
2022/03/31 00:04:10;;;;;;;;;;;;;;;1.46;100.00;100339.91;5094893;28;20286;-76
2022/03/31 00:06:35;;;;;;;;;;;;;;;1.51;100.00;100348.88;5095865;28;19925;-77
2022/03/31 00:09:01;;;;;;;;;;;;;;;1.48;100.00;100353.91;5078625;28;20386;-75
2022/03/31 00:11:26;;;;;;;;;;;;;;;1.47;100.00;100368.53;5094909;28;19955;-75
2022/03/31 00:13:55;;;;;;;;;;;;;;;1.36;100.00;100373.03;5095003;28;19911;-76
2022/03/31 00:16:21;;;;;;;;;;;;;;;1.29;100.00;100367.34;5096292;28;19916;-75
2022/03/31 00:18:46;;;;;;;;;;;;;;;1.36;100.00;100378.22;5095611;28;19922;-76
2022/03/31 00:24:15;;;;;;;;;;;;;;;1.20;100.00;100384.13;5113953;28;19938;-77
2022/03/31 00:26:41;;;;;;;;;;;;;;;1.08;100.00;100389.38;5096165;28;19919;-77
2022/03/31 00:29:07;;;;;;;;;;;;;;;1.08;100.00;100398.84;5095852;28;19976;-78
2022/03/31 00:31:32;;;;;;;;;;;;;;;1.08;100.00;100404.94;5096079;28;20432;-78
2022/03/31 00:34:02;;;;;;;;;;;;;;;0.94;100.00;100405.72;5096241;28;19916;-78
2022/03/31 00:36:28;;;;;;;;;;;;;;;0.96;100.00;100403.22;5096531;28;19912;-78
2022/03/31 00:41:38;;;;;;;;;;;;;;;0.64;100.00;100407.16;5114970;28;19968;-79
2022/03/31 00:44:11;;;;;;;;;;;;;;;0.51;100.00;100413.16;5096070;28;19923;-78
2022/03/31 00:46:45;;;;;;;;;;;;;;;0.52;100.00;100414.97;5096349;28;19958;-77
2022/03/31 00:49:10;;;;;;;;;;;;;;;0.48;100.00;100413.88;5095902;28;19927;-79
2022/03/31 00:51:36;;;;;;;;;;;;;;;0.59;100.00;100413.69;5096288;28;19920;-79
2022/03/31 00:54:01;;;;;;;;;;;;;;;0.53;100.00;100422.84;5095610;28;19927;-77
2022/03/31 00:56:26;;;;;;;;;;;;;;;0.52;100.00;100413.25;5096459;28;20040;-78
2022/03/31 00:58:53;;;;;;;;;;;;;;;0.58;100.00;100410.22;5095820;28;19916;-78
2022/03/31 01:01:19;;;;;;;;;;;;;;;0.60;100.00;100408.59;5095842;28;19916;-78
2022/03/31 01:03:46;;;;;;;;;;;;;;;0.56;100.00;100422.16;5095661;28;20352;-77
2022/03/31 01:06:12;;;;;;;;;;;;;;;0.59;100.00;100421.47;5095056;28;19924;-77
2022/03/31 01:08:37;;;;;;;;;;;;;;;0.55;100.00;100410.00;5095045;28;19942;-78
2022/03/31 01:11:02;;;;;;;;;;;;;;;0.59;100.00;100406.84;5095581;28;19915;-78
2022/03/31 01:13:29;;;;;;;;;;;;;;;0.56;100.00;100411.81;5095763;28;19973;-79
2022/03/31 01:15:54;;;;;;;;;;;;;;;0.52;100.00;100414.97;5091594;28;20321;-78
2022/03/31 01:18:20;;;;;;;;;;;;;;;0.52;100.00;100420.16;5095588;28;19919;-78
2022/03/31 01:20:46;;;;;;;;;;;;;;;0.48;100.00;100426.81;5093468;28;20303;-77
2022/03/31 01:23:16;;;;;;;;;;;;;;;0.51;100.00;100413.16;5093784;28;19912;-75
2022/03/31 01:25:42;;;;;;;;;;;;;;;0.59;100.00;100409.41;5095092;28;19943;-77
2022/03/31 01:28:07;;;;;;;;;;;;;;;0.61;100.00;100400.06;5094469;28;19981;-76
2022/03/31 01:30:33;;;;;;;;;;;;;;;0.63;98.48;100407.94;5095117;28;19922;-77
2022/03/31 01:32:59;;;;;;;;;;;;;;;0.61;94.50;100397.47;5094689;28;20329;-77
2022/03/31 01:35:25;;;;;;;;;;;;;;;0.55;92.09;100406.50;5094243;28;20014;-75
2022/03/31 01:37:50;;;;;;;;;;;;;;;0.56;89.37;100396.25;5112493;28;20533;-76
2022/03/31 01:40:15;;;;;;;;;;;;;;;0.47;87.73;100400.81;5094771;28;19920;-77
2022/03/31 01:42:42;;;;;;;;;;;;;;;0.48;86.17;100382.78;5094712;28;19916;-77
2022/03/31 01:45:10;;;;;;;;;;;;;;;0.55;84.68;100384.09;5112562;28;19919;-74
2022/03/31 01:47:36;;;;;;;;;;;;;;;0.61;83.24;100392.28;5112496;28;19919;-77
2022/03/31 01:50:01;;;;;;;;;;;;;;;0.58;82.43;100389.47;5094293;28;19916;-77
2022/03/31 01:52:28;;;;;;;;;;;;;;;0.50;81.78;100388.94;5093958;28;19916;-77
2022/03/31 01:54:53;;;;;;;;;;;;;;;0.47;81.15;100382.66;5093206;28;20022;-77
2022/03/31 01:57:18;;;;;;;;;;;;;;;0.45;80.52;100379.06;5094240;28;19920;-77
2022/03/31 01:59:44;;;;;;;;;;;;;;;0.47;79.99;100380.97;5094676;28;19916;-76
2022/03/31 02:02:12;;;;;;;;;;;;;;;0.42;79.45;100381.44;5094385;28;20635;-78
2022/03/31 02:04:40;;;;;;;;;;;;;;;0.42;79.04;100391.78;5095298;28;19919;-76
2022/03/31 02:07:06;;;;;;;;;;;;;;;0.42;78.73;100386.63;5095132;28;20264;-79
2022/03/31 02:09:31;;;;;;;;;;;;;;;0.42;78.43;100391.78;5094367;28;19969;-77
2022/03/31 02:11:58;;;;;;;;;;;;;;;0.45;77.98;100392.94;5094851;28;19938;-79
2022/03/31 02:14:23;;;;;;;;;;;;;;;0.45;77.59;100392.94;5094585;28;19916;-79
2022/03/31 02:16:48;;;;;;;;;;;;;;;0.45;77.39;100392.94;5094651;28;19969;-78
2022/03/31 02:19:14;;;;;;;;;;;;;;;0.40;76.99;100399.47;5098741;28;20309;-79
2022/03/31 02:21:40;;;;;;;;;;;;;;;0.41;76.70;100390.91;5098853;28;20375;-79
2022/03/31 02:24:06;;;;;;;;;;;;;;;0.55;76.23;100393.56;5097734;28;20536;-78
2022/03/31 02:26:31;;;;;;;;;;;;;;;0.47;75.99;100393.03;5098278;28;19915;-78
2022/03/31 02:28:57;;;;;;;;;;;;;;;0.44;75.87;100396.28;5097915;28;20256;-78
2022/03/31 02:31:22;;;;;;;;;;;;;;;0.39;75.77;100391.56;5096761;28;19963;-79
2022/03/31 02:33:49;;;;;;;;;;;;;;;0.44;75.54;100390.22;5097574;28;19927;-79
2022/03/31 02:36:15;;;;;;;;;;;;;;;0.41;75.40;100395.19;5098892;28;19969;-78
2022/03/31 02:38:40;;;;;;;;;;;;;;;0.45;75.24;100399.78;5097997;28;20337;-78
2022/03/31 02:41:05;;;;;;;;;;;;;;;0.50;75.01;100394.13;5098407;28;19957;-78
2022/03/31 02:43:38;;;;;;;;;;;;;;;0.60;74.78;100393.06;5098770;28;19977;-79
2022/03/31 02:46:04;;;;;;;;;;;;;;;0.54;74.70;100392.63;5098500;28;19916;-78
2022/03/31 02:48:29;;;;;;;;;;;;;;;0.57;74.60;100387.66;5098369;28;19915;-79
2022/03/31 02:50:54;;;;;;;;;;;;;;;0.56;74.59;100379.78;5098340;28;20385;-78
2022/03/31 02:56:03;;;;;;;;;;;;;;;0.46;74.65;100370.50;5096018;28;19939;-78
2022/03/31 02:58:29;;;;;;;;;;;;;;;0.50;74.59;100376.00;5079528;28;20300;-78
2022/03/31 03:00:55;;;;;;;;;;;;;;;0.52;74.54;100368.31;5098063;28;19974;-79
2022/03/31 03:03:20;;;;;;;;;;;;;;;0.60;74.46;100376.63;5098349;28;19916;-78
2022/03/31 03:05:46;;;;;;;;;;;;;;;0.61;74.39;100373.25;5115977;28;20485;-79
2022/03/31 03:08:11;;;;;;;;;;;;;;;0.69;74.24;100369.47;5097832;28;19915;-78
2022/03/31 03:10:37;;;;;;;;;;;;;;;0.69;74.15;100372.94;5098143;28;20275;-78
2022/03/31 03:13:08;;;;;;;;;;;;;;;0.66;74.12;100361.50;5097525;28;19920;-78
2022/03/31 03:15:33;;;;;;;;;;;;;;;0.67;74.08;100361.59;5097405;28;20462;-78
2022/03/31 03:17:58;;;;;;;;;;;;;;;0.71;74.03;100370.47;5097633;28;20006;-78
2022/03/31 03:20:24;;;;;;;;;;;;;;;0.75;73.94;100371.59;5097279;28;19922;-78
2022/03/31 03:22:50;;;;;;;;;;;;;;;0.78;73.88;100370.09;5080605;28;20364;-77
2022/03/31 03:25:17;;;;;;;;;;;;;;;0.81;73.83;100374.56;5097819;28;19920;-78
2022/03/31 03:27:43;;;;;;;;;;;;;;;0.89;73.75;100368.22;5097633;28;19915;-78
2022/03/31 03:30:09;;;;;;;;;;;;;;;0.88;73.76;100374.19;5115567;28;19987;-79
2022/03/31 03:32:36;;;;;;;;;;;;;;;0.89;73.76;100371.69;5097005;28;20417;-77
2022/03/31 03:35:03;;;;;;;;;;;;;;;0.90;73.79;100367.41;5112349;28;19959;-77
2022/03/31 03:37:28;;;;;;;;;;;;;;;0.89;73.82;100369.13;5096340;28;20006;-77
2022/03/31 03:39:53;;;;;;;;;;;;;;;0.98;73.78;100375.69;5096516;28;20357;-78
2022/03/31 03:42:19;;;;;;;;;;;;;;;1.01;73.76;100378.50;5096369;28;19912;-75
2022/03/31 03:44:45;;;;;;;;;;;;;;;1.00;73.75;100372.41;5096846;28;19927;-74
2022/03/31 03:47:10;;;;;;;;;;;;;;;1.05;73.75;100368.44;5096347;28;20021;-77
2022/03/31 03:49:35;;;;;;;;;;;;;;;1.14;73.72;100380.22;5095093;28;19975;-76
2022/03/31 03:52:00;;;;;;;;;;;;;;;1.16;73.71;100376.03;5096294;28;19955;-77
2022/03/31 03:54:28;;;;;;;;;;;;;;;1.20;73.69;100371.16;5096450;28;19916;-77
2022/03/31 03:56:53;;;;;;;;;;;;;;;1.16;73.77;100371.72;5096476;28;19916;-77
2022/03/31 03:59:18;;;;;;;;;;;;;;;1.20;73.69;100380.63;5096480;28;19915;-76
2022/03/31 04:01:44;;;;;;;;;;;;;;;1.17;73.66;100375.25;5079458;28;20362;-76
2022/03/31 04:04:12;;;;;;;;;;;;;;;1.14;73.67;100377.63;5096280;28;20392;-76
2022/03/31 04:06:37;;;;;;;;;;;;;;;1.17;73.59;100383.03;5096750;28;19955;-80
2022/03/31 04:09:03;;;;;;;;;;;;;;;1.17;73.56;100380.44;5096327;28;19966;-77
2022/03/31 04:11:28;;;;;;;;;;;;;;;1.18;73.48;100384.78;5096583;28;19916;-77
2022/03/31 04:13:54;;;;;;;;;;;;;;;1.16;73.50;100381.22;5114261;28;19920;-77
2022/03/31 04:16:20;;;;;;;;;;;;;;;1.07;73.55;100385.00;5093927;28;19960;-78
2022/03/31 04:18:45;;;;;;;;;;;;;;;1.12;73.46;100389.56;5096523;28;19924;-78
2022/03/31 04:21:11;;;;;;;;;;;;;;;1.08;73.43;100384.19;5095884;28;19984;-78
2022/03/31 04:23:36;;;;;;;;;;;;;;;1.02;73.44;100385.50;5079250;28;19923;-76
2022/03/31 04:26:02;;;;;;;;;;;;;;;1.11;73.37;100382.63;5096096;28;19923;-78
2022/03/31 04:28:27;;;;;;;;;;;;;;;1.11;73.36;100380.03;5096209;28;20345;-78
2022/03/31 04:30:54;;;;;;;;;;;;;;;1.10;73.40;100386.00;5079164;28;20015;-78
2022/03/31 04:33:20;;;;;;;;;;;;;;;1.14;73.39;100372.44;5096238;28;19951;-78
2022/03/31 04:35:46;;;;;;;;;;;;;;;1.16;73.36;100376.03;5095908;28;19919;-78
2022/03/31 04:38:12;;;;;;;;;;;;;;;1.16;73.37;100376.91;5095438;28;19993;-78
2022/03/31 04:40:37;;;;;;;;;;;;;;;1.11;73.49;100369.66;5095927;28;19916;-77
2022/03/31 04:43:02;;;;;;;;;;;;;;;1.13;73.63;100371.53;5096320;28;20275;-80
2022/03/31 04:45:28;;;;;;;;;;;;;;;1.13;73.76;100378.41;5095954;28;20426;-80
2022/03/31 04:47:54;;;;;;;;;;;;;;;1.18;73.85;100372.75;5095070;28;20006;-77
2022/03/31 04:50:19;;;;;;;;;;;;;;;1.18;73.91;100377.03;5096209;28;19916;-78
2022/03/31 04:52:44;;;;;;;;;;;;;;;1.11;74.13;100375.72;5113846;28;19915;-80
2022/03/31 04:55:10;;;;;;;;;;;;;;;1.16;74.24;100376.03;5096034;28;19916;-77
2022/03/31 04:57:35;;;;;;;;;;;;;;;1.16;74.41;100376.03;5095701;28;19916;-77
2022/03/31 05:00:05;;;;;;;;;;;;;;;1.16;74.55;100373.44;5095579;28;20458;-81
2022/03/31 05:02:30;;;;;;;;;;;;;;;1.08;74.73;100375.53;5079175;28;19985;-79
2022/03/31 05:04:58;;;;;;;;;;;;;;;1.04;75.01;100371.84;5095924;28;20367;-79
2022/03/31 05:07:23;;;;;;;;;;;;;;;1.04;75.16;100360.53;5095825;28;20316;-78
2022/03/31 05:09:49;;;;;;;;;;;;;;;1.07;75.17;100363.34;5113935;28;19916;-80
2022/03/31 05:12:14;;;;;;;;;;;;;;;0.99;75.33;100370.63;5096009;28;19922;-78
2022/03/31 05:14:40;;;;;;;;;;;;;;;0.91;75.62;100364.03;5095905;28;19916;-78
2022/03/31 05:17:05;;;;;;;;;;;;;;;1.04;75.65;100369.25;5094887;28;19922;-79
2022/03/31 05:19:31;;;;;;;;;;;;;;;1.05;75.73;100368.44;5079063;28;19927;-78
2022/03/31 05:21:56;;;;;;;;;;;;;;;1.04;75.83;100361.47;5096106;28;19915;-80
2022/03/31 05:24:21;;;;;;;;;;;;;;;1.10;75.84;100355.75;5096053;28;19916;-80
2022/03/31 05:26:48;;;;;;;;;;;;;;;1.08;75.77;100358.25;5112392;28;19922;-80
2022/03/31 05:29:15;;;;;;;;;;;;;;;1.07;75.81;100348.69;5112346;28;19923;-79
2022/03/31 05:31:40;;;;;;;;;;;;;;;1.09;75.83;100364.38;5077561;28;19920;-79
2022/03/31 05:34:05;;;;;;;;;;;;;;;1.14;75.69;100367.25;5094676;28;19943;-80
2022/03/31 05:36:31;;;;;;;;;;;;;;;1.19;75.51;100373.63;5096054;28;19916;-80
2022/03/31 05:38:56;;;;;;;;;;;;;;;1.27;75.26;100374.16;5112853;28;19919;-79
2022/03/31 05:41:22;;;;;;;;;;;;;;;1.22;75.14;100368.66;5108533;28;19966;-79
2022/03/31 05:43:49;;;;;;;;;;;;;;;1.23;75.10;100366.16;5116146;28;19916;-80
2022/03/31 05:46:15;;;;;;;;;;;;;;;1.23;74.99;100358.38;5092965;28;19930;-79
2022/03/31 05:48:43;;;;;;;;;;;;;;;1.25;74.99;100364.56;5092887;28;20338;-79
2022/03/31 05:51:12;;;;;;;;;;;;;;;1.23;74.97;100363.56;5113210;28;19919;-79
2022/03/31 05:53:40;;;;;;;;;;;;;;;1.20;75.08;100363.38;5102653;27;19922;-78
2022/03/31 05:56:05;;;;;;;;;;;;;;;1.18;75.36;100361.47;5111929;28;19927;-79
2022/03/31 05:58:30;;;;;;;;;;;;;;;1.27;75.43;100364.66;5099635;28;20275;-79
2022/03/31 06:00:56;;;;;;;;;;;;;;;1.26;75.51;100357.69;5093076;28;19928;-79
2022/03/31 06:03:23;;;;;;;;;;;;;;;1.29;75.60;100357.88;5081891;28;20291;-78
2022/03/31 06:05:51;;;;;;;;;;;;;;;1.34;75.78;100355.59;5099854;27;20398;-79
2022/03/31 06:08:17;;;;;;;;;;;;;;;1.41;75.97;100355.19;5118478;27;19919;-79
2022/03/31 06:10:42;;;;;;;;;;;;;;;1.44;75.99;100357.97;5119359;27;19922;-79
2022/03/31 06:13:13;;;;;;;;;;;;;;;1.47;76.23;100349.50;5119552;27;19922;-79
2022/03/31 06:15:38;;;;;;;;;;;;;;;1.45;76.74;100348.50;5118706;27;19923;-79
2022/03/31 06:18:08;;;;;;;;;;;;;;;1.47;77.29;100363.34;5137191;27;20281;-79
2022/03/31 06:20:34;;;;;;;;;;;;;;;1.50;78.12;100358.34;5118661;27;19916;-79
2022/03/31 06:23:00;;;;;;;;;;;;;;;1.46;79.60;100358.06;5118671;27;19926;-79
2022/03/31 06:25:27;;;;;;;;;;;;;;;1.52;81.43;100356.75;5101798;28;20337;-78
2022/03/31 06:27:53;;;;;;;;;;;;;;;1.53;83.35;100360.25;5098467;28;19920;-77
2022/03/31 06:30:20;;;;;;;;;;;;;;;1.65;84.73;100363.66;5110697;27;19989;-78
2022/03/31 06:32:45;;;;;;;;;;;;;;;1.66;87.46;100362.81;5119220;27;20262;-78
2022/03/31 06:35:14;;;;;;;;;;;;;;;1.71;95.13;100368.31;5101331;27;19923;-78
2022/03/31 06:37:44;;;;;;;;;;;;;;;1.73;100.00;100361.53;5117059;27;20331;-76
2022/03/31 06:40:10;;;;;;;;;;;;;;;1.68;100.00;100363.84;5117986;27;20083;-78
2022/03/31 06:42:37;;;;;;;;;;;;;;;1.72;100.00;100367.53;5119046;27;19965;-77
2022/03/31 06:45:04;;;;;;;;;;;;;;;1.75;100.00;100370.31;5136597;27;19984;-78
2022/03/31 06:47:29;;;;;;;;;;;;;;;1.78;100.00;100371.41;5118361;27;20006;-78
2022/03/31 06:49:54;;;;;;;;;;;;;;;1.87;100.00;100367.59;5099981;27;20018;-78
2022/03/31 06:52:20;;;;;;;;;;;;;;;1.89;100.00;100371.19;5118515;27;20037;-77
2022/03/31 06:54:46;;;;;;;;;;;;;;;1.85;100.00;100367.50;5111024;28;20296;-79
2022/03/31 06:57:13;;;;;;;;;;;;;;;1.86;100.00;100369.28;5125881;27;20027;-77
2022/03/31 06:59:40;;;;;;;;;;;;;;;1.93;100.00;100365.41;5118857;27;19915;-79
2022/03/31 07:02:06;;;;;;;;;;;;;;;2.02;100.00;100365.97;5118777;27;19922;-78
2022/03/31 07:04:31;;;;;;;;;;;;;;;2.21;100.00;100355.00;5093913;27;19924;-78
2022/03/31 07:06:56;;;;;;;;;;;;;;;2.21;100.00;100368.00;5118663;27;19919;-78
2022/03/31 07:09:22;;;;;;;;;;;;;;;2.20;100.00;100357.50;5119100;27;20061;-80
2022/03/31 07:11:47;;;;;;;;;;;;;;;2.23;100.00;100357.69;5118787;27;19923;-78
2022/03/31 07:14:14;;;;;;;;;;;;;;;2.19;100.00;100354.03;5136644;27;19915;-78
2022/03/31 07:16:41;;;;;;;;;;;;;;;2.19;100.00;100355.72;5103438;27;19972;-78
2022/03/31 07:19:08;;;;;;;;;;;;;;;2.22;100.00;100366.28;5136951;27;19915;-77
2022/03/31 07:21:33;;;;;;;;;;;;;;;2.26;100.00;100365.69;5118681;27;19922;-78
2022/03/31 07:24:07;;;;;;;;;;;;;;;2.50;100.00;100374.06;5139026;27;19966;-77
2022/03/31 07:26:40;;;;;;;;;;;;;;;2.54;100.00;100372.56;5138032;27;19915;-78
2022/03/31 07:29:05;;;;;;;;;;;;;;;2.57;100.00;100377.94;5102018;27;19927;-79
2022/03/31 07:31:30;;;;;;;;;;;;;;;2.67;100.00;100373.41;5119073;27;20267;-79
2022/03/31 07:33:56;;;;;;;;;;;;;;;2.81;100.00;100363.81;5119676;27;19975;-78
2022/03/31 07:36:21;;;;;;;;;;;;;;;2.95;100.00;100363.72;5119866;27;19922;-78
2022/03/31 07:38:46;;;;;;;;;;;;;;;2.88;100.00;100363.34;5119259;27;20347;-78
2022/03/31 07:41:14;;;;;;;;;;;;;;;2.79;100.00;100356.72;5138016;27;19955;-79
2022/03/31 07:43:46;;;;;;;;;;;;;;;2.74;100.00;100347.75;5118876;27;19916;-78
2022/03/31 07:46:13;;;;;;;;;;;;;;;2.72;100.00;100346.75;5117344;27;19920;-79
2022/03/31 07:48:38;;;;;;;;;;;;;;;2.54;100.00;100341.38;5117522;27;20010;-79
2022/03/31 07:51:06;;;;;;;;;;;;;;;2.50;100.00;100342.88;5117723;27;20355;-79
2022/03/31 07:53:34;;;;;;;;;;;;;;;2.58;100.00;100330.34;5118521;27;19911;-78
2022/03/31 07:56:02;;;;;;;;;;;;;;;2.55;100.00;100315.47;5136196;27;19919;-78
2022/03/31 07:58:29;;;;;;;;;;;;;;;2.77;100.00;100302.03;5121060;27;19912;-78
2022/03/31 08:01:21;;;;;;;;;;;;;;;2.85;100.00;100292.06;5120982;27;19926;-78
2022/03/31 08:03:56;;;;;;;;;;;;;;;2.93;100.00;100284.72;5118279;27;19920;-77
2022/03/31 08:06:27;;;;;;;;;;;;;;;2.96;100.00;100279.69;5121296;27;19977;-78
2022/03/31 08:08:53;;;;;;;;;;;;;;;3.06;100.00;100274.19;5119992;27;19923;-79
2022/03/31 08:11:23;;;;;;;;;;;;;;;3.13;100.00;100270.25;5137181;27;19915;-78
2022/03/31 08:14:00;;;;;;;;;;;;;;;3.11;100.00;100253.63;5139209;27;19936;-78
2022/03/31 08:16:27;;;;;;;;;;;;;;;3.30;100.00;100245.16;5137187;27;19915;-78
2022/03/31 08:18:58;;;;;;;;;;;;;;;3.37;100.00;100237.78;5103300;27;20274;-77
2022/03/31 08:21:25;;;;;;;;;;;;;;;3.48;100.00;100230.56;5136609;27;19915;-77
2022/03/31 08:23:53;;;;;;;;;;;;;;;3.53;100.00;100229.09;5103321;27;19985;-77
2022/03/31 08:26:40;;;;;;;;;;;;;;;3.52;100.00;100222.09;5119628;27;19915;-78
2022/03/31 08:29:07;;;;;;;;;;;;;;;3.44;100.00;100220.78;5136159;27;19920;-79
2022/03/31 08:31:38;;;;;;;;;;;;;;;3.51;100.00;100209.91;5136322;27;20398;-77
2022/03/31 08:34:32;;;;;;;;;;;;;;;3.69;100.00;100204.75;5101182;27;20030;-77
2022/03/31 08:37:18;;;;;;;;;;;;;;;3.95;100.00;100200.94;5134867;27;20394;-78
2022/03/31 08:39:44;;;;;;;;;;;;;;;3.76;100.00;100196.47;5136648;27;19916;-79
2022/03/31 08:42:17;;;;;;;;;;;;;;;4.20;100.00;100188.28;5118319;27;19961;-77
2022/03/31 08:45:03;;;;;;;;;;;;;;;4.13;100.00;100181.84;5101908;27;19938;-78
2022/03/31 08:47:50;;;;;;;;;;;;;;;4.11;100.00;100181.75;5138658;27;19915;-79
2022/03/31 08:50:17;;;;;;;;;;;;;;;4.16;100.00;100176.78;5121839;27;19915;-77
2022/03/31 08:52:47;;;;;;;;;;;;;;;4.15;100.00;100172.41;5138392;27;19916;-77
2022/03/31 08:55:15;;;;;;;;;;;;;;;4.00;100.00;100164.69;5121253;27;19961;-78
2022/03/31 08:57:55;;;;;;;;;;;;;;;4.12;100.00;100165.31;5138139;27;19911;-78
2022/03/31 09:00:42;;;;;;;;;;;;;;;3.88;100.00;100154.53;5137563;27;19935;-77
2022/03/31 09:03:18;;;;;;;;;;;;;;;4.02;100.00;100154.34;5121803;27;19918;-77
2022/03/31 09:05:46;;;;;;;;;;;;;;;4.34;100.00;100152.50;5139523;27;19915;-78
2022/03/31 09:08:13;;;;;;;;;;;;;;;4.22;100.00;100145.81;5142188;27;19915;-78
2022/03/31 09:10:44;;;;;;;;;;;;;;;4.21;100.00;100143.13;5109184;27;19919;-78
2022/03/31 09:13:30;;;;;;;;;;;;;;;4.20;100.00;100142.25;5122995;27;19919;-78
2022/03/31 09:16:02;;;;;;;;;;;;;;;4.09;100.00;100135.63;5120833;27;19922;-78
2022/03/31 09:18:50;;;;;;;;;;;;;;;4.01;100.00;100126.50;5121270;27;19916;-77
2022/03/31 09:21:22;;;;;;;;;;;;;;;4.31;100.00;100129.75;5144625;27;20357;-77
2022/03/31 09:23:54;;;;;;;;;;;;;;;4.19;100.00;100135.25;5108103;27;19920;-78
2022/03/31 09:26:21;;;;;;;;;;;;;;;4.11;100.00;100133.97;5142552;27;19976;-78
2022/03/31 09:28:47;;;;;;;;;;;;;;;4.01;100.00;100131.72;5127362;27;20298;-77
2022/03/31 09:31:33;;;;;;;;;;;;;;;4.15;100.00;100128.13;5123173;28;19926;-77
2022/03/31 09:34:02;;;;;;;;;;;;;;;4.27;100.00;100128.72;5125048;28;19926;-77
2022/03/31 09:36:30;;;;;;;;;;;;;;;4.43;100.00;100127.75;5120223;28;20382;-77
2022/03/31 09:39:13;;;;;;;;;;;;;;;4.62;100.00;100128.66;5084789;28;19963;-76
2022/03/31 09:41:40;;;;;;;;;;;;;;;4.61;100.00;100130.34;5097831;28;19942;-78
2022/03/31 09:44:07;;;;;;;;;;;;;;;4.45;100.00;100123.50;5082816;28;19945;-78
2022/03/31 09:46:34;;;;;;;;;;;;;;;4.32;100.00;100119.41;5086110;28;19924;-72
2022/03/31 09:49:09;;;;;;;;;;;;;;;4.29;100.00;100116.66;5110836;28;20363;-78
2022/03/31 09:51:35;;;;;;;;;;;;;;;4.26;100.00;100120.84;5099769;28;19923;-77
2022/03/31 09:54:01;;;;;;;;;;;;;;;4.18;100.00;100122.13;5115408;28;20295;-72
2022/03/31 09:56:28;;;;;;;;;;;;;;;4.19;100.00;100110.91;5095833;28;20421;-78
2022/03/31 09:59:00;;;;;;;;;;;;;;;4.31;100.00;100108.91;5114584;28;20375;-79
2022/03/31 10:01:26;;;;;;;;;;;;;;;4.47;100.00;100110.53;5079127;28;19919;-79
2022/03/31 10:04:06;;;;;;;;;;;;;;;4.53;100.00;100103.03;5096443;28;19927;-78
2022/03/31 10:06:36;;;;;;;;;;;;;;;4.41;100.00;100105.94;5113944;28;19999;-78
2022/03/31 10:09:16;;;;;;;;;;;;;;;4.35;100.00;100110.84;5095338;28;19919;-79
2022/03/31 10:11:42;;;;;;;;;;;;;;;4.22;100.00;100106.72;5096599;28;20010;-79
2022/03/31 10:14:10;;;;;;;;;;;;;;;4.25;100.00;100108.59;5095402;28;19916;-79
2022/03/31 10:17:00;;;;;;;;;;;;;;;4.13;100.00;100107.19;5113781;28;19919;-79
2022/03/31 10:19:29;;;;;;;;;;;;;;;4.18;100.00;100102.22;5081933;28;20488;-78
2022/03/31 10:21:59;;;;;;;;;;;;;;;4.04;100.00;100106.72;5095418;28;19915;-79
2022/03/31 10:27:24;;;;;;;;;;;;;;;3.95;100.00;100103.66;5113739;28;19943;-79
2022/03/31 10:29:51;;;;;;;;;;;;;;;3.93;100.00;100106.19;5078467;28;19920;-79
2022/03/31 10:32:20;;;;;;;;;;;;;;;3.97;100.00;100096.81;5095686;28;20014;-78
2022/03/31 10:34:48;;;;;;;;;;;;;;;3.97;100.00;100104.63;5095087;28;19916;-79
2022/03/31 10:37:17;;;;;;;;;;;;;;;3.82;100.00;100102.13;5095439;28;20332;-79
2022/03/31 10:39:50;;;;;;;;;;;;;;;3.87;100.00;100099.75;5098956;28;19916;-80
2022/03/31 10:42:23;;;;;;;;;;;;;;;4.04;100.00;100095.41;5117454;28;19985;-78
2022/03/31 10:45:02;;;;;;;;;;;;;;;4.02;100.00;100104.84;5099552;28;20261;-80
2022/03/31 10:47:31;;;;;;;;;;;;;;;4.04;100.00;100096.31;5095875;28;19923;-80
2022/03/31 10:49:56;;;;;;;;;;;;;;;4.25;100.00;100092.97;5115974;28;19919;-80
2022/03/31 10:52:23;;;;;;;;;;;;;;;4.08;100.00;100095.63;5116401;28;19916;-81
2022/03/31 10:54:51;;;;;;;;;;;;;;;4.16;100.00;100085.59;5083127;28;20010;-80
2022/03/31 10:57:17;;;;;;;;;;;;;;;4.34;100.00;100084.72;5118103;28;20010;-80
2022/03/31 10:59:44;;;;;;;;;;;;;;;4.50;100.00;100084.63;5100201;28;19916;-80
2022/03/31 11:02:14;;;;;;;;;;;;;;;4.51;100.00;100083.81;5099402;28;19920;-80
2022/03/31 11:04:46;;;;;;;;;;;;;;;4.42;100.00;100078.16;5116273;28;19955;-77
2022/03/31 11:07:16;;;;;;;;;;;;;;;4.49;100.00;100075.91;5099706;28;19938;-78
2022/03/31 11:09:43;;;;;;;;;;;;;;;4.52;100.00;100077.75;5098121;28;19926;-79
2022/03/31 11:12:08;;;;;;;;;;;;;;;4.49;100.00;100077.63;5099776;28;19919;-79
2022/03/31 11:14:34;;;;;;;;;;;;;;;4.56;100.00;100074.47;5097953;28;20385;-79
2022/03/31 11:16:59;;;;;;;;;;;;;;;4.49;100.00;100069.81;5098625;28;20489;-79
2022/03/31 11:19:34;;;;;;;;;;;;;;;4.63;100.00;100081.78;5120361;28;19923;-80
2022/03/31 11:21:59;;;;;;;;;;;;;;;4.54;100.00;100070.00;5120441;28;19915;-78
2022/03/31 11:24:27;;;;;;;;;;;;;;;4.62;100.00;100068.69;5100266;28;19964;-80
2022/03/31 11:26:54;;;;;;;;;;;;;;;4.54;100.00;100064.78;5099439;28;19918;-79
2022/03/31 11:29:23;;;;;;;;;;;;;;;4.58;100.00;100065.00;5099545;28;19923;-78
2022/03/31 11:31:50;;;;;;;;;;;;;;;4.63;100.00;100060.94;5100242;28;19916;-78
2022/03/31 11:34:22;;;;;;;;;;;;;;;4.55;100.00;100053.56;5099535;28;19926;-79
2022/03/31 11:36:47;;;;;;;;;;;;;;;4.57;100.00;100050.22;5083443;28;19992;-78
2022/03/31 11:39:14;;;;;;;;;;;;;;;4.53;100.00;100047.38;5118315;28;19951;-78
2022/03/31 11:41:56;;;;;;;;;;;;;;;4.47;100.00;100050.56;5100851;28;20561;-79
2022/03/31 11:44:26;;;;;;;;;;;;;;;4.48;100.00;100049.78;5098738;28;19947;-78
2022/03/31 11:46:52;;;;;;;;;;;;;;;4.46;100.00;100044.47;5116402;28;19962;-79
2022/03/31 11:49:24;;;;;;;;;;;;;;;4.49;100.00;100056.78;5117012;28;20371;-79
2022/03/31 11:51:59;;;;;;;;;;;;;;;4.52;100.00;100048.19;5114445;28;19920;-78
2022/03/31 11:54:25;;;;;;;;;;;;;;;4.57;100.00;100046.69;5115838;28;19930;-78
2022/03/31 11:57:03;;;;;;;;;;;;;;;4.71;100.00;100049.94;5092128;28;19920;-78
2022/03/31 11:59:29;;;;;;;;;;;;;;;4.87;100.00;100051.56;5077822;28;19920;-78
2022/03/31 12:01:55;;;;;;;;;;;;;;;4.89;100.00;100044.69;5073890;28;19931;-78
2022/03/31 12:04:22;;;;;;;;;;;;;;;5.03;100.00;100047.13;5080190;28;19920;-77
2022/03/31 12:06:53;;;;;;;;;;;;;;;4.97;100.00;100052.06;5114642;28;20427;-78
2022/03/31 12:09:19;;;;;;;;;;;;;;;4.95;100.00;100040.63;5095168;28;20268;-78
2022/03/31 12:11:46;;;;;;;;;;;;;;;4.91;100.00;100038.72;5079626;28;20390;-77
2022/03/31 12:14:12;;;;;;;;;;;;;;;5.01;100.00;100037.44;5114022;28;19915;-77
2022/03/31 12:16:51;;;;;;;;;;;;;;;4.80;100.00;100053.91;5095520;28;20302;-77
2022/03/31 12:19:17;;;;;;;;;;;;;;;4.70;100.00;100041.22;5113662;28;20287;-77
2022/03/31 12:21:50;;;;;;;;;;;;;;;4.63;100.00;100041.75;5109718;28;19915;-78
2022/03/31 12:24:17;;;;;;;;;;;;;;;4.57;100.00;100044.06;5095763;28;19935;-76
2022/03/31 12:26:55;;;;;;;;;;;;;;;4.55;100.00;100046.63;5114363;28;20019;-77
2022/03/31 12:29:21;;;;;;;;;;;;;;;4.66;100.00;100055.84;5095085;28;19937;-78
2022/03/31 12:31:48;;;;;;;;;;;;;;;4.70;100.00;100053.41;5096051;28;19924;-77
2022/03/31 12:34:13;;;;;;;;;;;;;;;4.71;100.00;100047.34;5078652;28;19915;-77
2022/03/31 12:36:41;;;;;;;;;;;;;;;4.75;100.00;100044.94;5095605;28;19984;-78
2022/03/31 12:39:07;;;;;;;;;;;;;;;4.96;100.00;100041.56;5131263;27;19976;-78
2022/03/31 12:41:36;;;;;;;;;;;;;;;4.93;100.00;100038.81;5116664;27;19916;-77
2022/03/31 12:44:02;;;;;;;;;;;;;;;4.85;100.00;100046.28;5116026;27;19915;-78
2022/03/31 12:46:31;;;;;;;;;;;;;;;4.57;100.00;100050.22;5135115;27;19922;-77
2022/03/31 12:49:08;;;;;;;;;;;;;;;4.40;100.00;100051.13;5122849;27;19923;-79
2022/03/31 12:51:44;;;;;;;;;;;;;;;4.28;100.00;100049.69;5115048;28;20453;-77
2022/03/31 12:54:24;;;;;;;;;;;;;;;4.20;100.00;100052.78;5097626;28;19926;-77
2022/03/31 12:56:50;;;;;;;;;;;;;;;4.18;100.00;100049.19;5108165;27;19958;-78